Accueil
METAR-TAF:

METAR-TAF

Aéroports :

Tchita, Russie

latitude: 52-05N, longitude: 113-29E, altitude: 685 m

Observation

Le bulletin a été fait il y a 40 minutes, à 03:30 UTC
Vent 2 kt de est/nord-est
Température -26°C
Humidité 76%
Pression 1024 hPa
Visibilité: 9000 m

METAR: UIAA 110330Z 07001MPS 9000 NSC M26/M29 Q1024 R29/420150 NOSIG RMK QFE709/0946

Heure: 13:10 (04:10 UTC)

Prévision

Le bulletin a été fait il y a 2 heures et 10 minutes, à 02:00 UTC
Prévision valable du 11 à 03 UTC au 12 à 03 UTC
Vent 6 kt de nord/nord-est
Visibilité 10 km ou plus
Nuages épars à une hauteur de 4000 ft, Cumulonimbus.
Temporairement
du 11 à 15 UTC au 12 à 03 UTC
Vent 12 kt de ouest/nord-ouest avec des rafales jusqu'à 25 kt
Visibilité: 3100 m
Nuages fragmentés à une hauteur de 2000 ft, Cumulonimbus.
faibles averses de neige

TAF: UIAA 110200Z 1103/1203 02003MPS 9999 SCT040CB TEMPO 1115/1203 29006G13MPS 3100 -SHSN BKN020CB

Observations et prévisions météorologiques de plus de 4000 aéroports (messages METAR et TAF).

Les stations disponibles sont représentées par des disques jaunes et rouges sur la carte.

Passer la souris dessus pour voir le nom de la station.

Cliquer dessus pour voir les observations et prévisions météorologiques.

Pour changer de carte: cliquez sur les boutons verts avec une croix noire pour zoomer, sur le bouton vert avec un tiret pour effectuer un zoom arrière, ou sur les flèches vertes pour les cartes adjacentes.


METAR-TAF: